createdAt,value
2017-12-24T00:01:58.890Z,16.77
2017-12-24T00:04:26.419Z,14.53
2017-12-24T00:06:53.962Z,16.50
2017-12-24T00:09:21.534Z,13.50
2017-12-24T00:11:49.110Z,15.23
2017-12-24T00:14:16.643Z,11.13
2017-12-24T00:16:44.165Z,8.90
2017-12-24T00:19:12.495Z,10.17
2017-12-24T00:21:40.039Z,9.10
2017-12-24T00:24:07.629Z,9.30
2017-12-24T00:26:35.167Z,6.47
2017-12-24T00:29:02.714Z,8.67
2017-12-24T00:31:30.233Z,7.83
2017-12-24T00:33:57.788Z,8.73
2017-12-24T00:36:25.318Z,8.33
2017-12-24T00:38:52.866Z,8.10
2017-12-24T00:41:20.390Z,10.13
2017-12-24T00:43:48.711Z,9.63
2017-12-24T00:46:16.239Z,9.67
2017-12-24T00:48:43.795Z,9.60
2017-12-24T00:51:12.079Z,9.70
2017-12-24T00:53:39.637Z,10.27
2017-12-24T00:56:07.247Z,7.70
2017-12-24T00:58:34.762Z,12.33
2017-12-24T01:01:02.290Z,8.80
2017-12-24T01:03:29.849Z,6.83
2017-12-24T01:05:57.370Z,8.60
2017-12-24T01:08:24.918Z,8.13
2017-12-24T01:10:52.443Z,5.67
2017-12-24T01:13:20.738Z,7.70
2017-12-24T01:15:48.295Z,7.60
2017-12-24T01:18:23.491Z,6.80
2017-12-24T01:20:51.042Z,8.27
2017-12-24T01:23:18.569Z,9.43
2017-12-24T01:25:46.136Z,6.97
2017-12-24T01:28:13.663Z,7.80
2017-12-24T01:30:41.242Z,7.33
2017-12-24T01:33:08.763Z,7.67
2017-12-24T01:35:36.315Z,7.00
2017-12-24T01:38:03.842Z,7.57
2017-12-24T01:40:31.399Z,10.90
2017-12-24T01:42:58.922Z,8.70
2017-12-24T01:45:26.466Z,8.97
2017-12-24T01:47:54.762Z,7.97
2017-12-24T01:50:22.310Z,9.70
2017-12-24T01:52:50.619Z,11.97
2017-12-24T01:55:18.166Z,7.17
2017-12-24T01:57:45.702Z,6.30
2017-12-24T02:00:14.018Z,8.03
2017-12-24T02:02:41.534Z,7.80
2017-12-24T02:05:09.866Z,7.40
2017-12-24T02:07:37.398Z,6.83
2017-12-24T02:10:04.952Z,7.33
2017-12-24T02:12:32.476Z,7.40
2017-12-24T02:15:00.013Z,7.33
2017-12-24T02:17:27.563Z,5.90
2017-12-24T02:19:55.087Z,9.60
2017-12-24T02:22:22.638Z,5.80
2017-12-24T02:24:50.926Z,8.67
2017-12-24T02:27:18.481Z,9.10
2017-12-24T02:29:46.015Z,5.77
2017-12-24T02:32:13.563Z,7.80
2017-12-24T02:34:41.099Z,7.50
2017-12-24T02:37:08.643Z,7.53
2017-12-24T02:39:36.171Z,7.07
2017-12-24T02:42:04.486Z,7.00
2017-12-24T02:44:32.011Z,5.70
2017-12-24T02:47:00.330Z,5.93
2017-12-24T02:49:27.851Z,8.23
2017-12-24T02:51:56.166Z,6.07
2017-12-24T02:54:23.693Z,9.23
2017-12-24T02:56:51.246Z,7.87
2017-12-24T02:59:18.783Z,8.47
2017-12-24T03:01:46.339Z,6.23
2017-12-24T03:04:13.857Z,7.27
2017-12-24T03:06:41.379Z,7.07
2017-12-24T03:09:09.693Z,6.67
2017-12-24T03:11:37.218Z,9.30
2017-12-24T03:14:05.530Z,7.30
2017-12-24T03:16:33.053Z,9.77
2017-12-24T03:19:01.362Z,9.63
2017-12-24T03:21:28.891Z,7.50
2017-12-24T03:23:57.210Z,11.70
2017-12-24T03:26:24.734Z,8.17
2017-12-24T03:28:52.370Z,7.90
2017-12-24T03:31:19.973Z,9.57
2017-12-24T03:33:47.500Z,7.70
2017-12-24T03:36:15.802Z,8.33
2017-12-24T03:38:43.351Z,6.47
2017-12-24T03:41:10.874Z,7.30
2017-12-24T03:43:38.493Z,6.97
2017-12-24T03:46:06.025Z,9.43
2017-12-24T03:48:34.339Z,9.40
2017-12-24T03:51:01.867Z,6.03
2017-12-24T03:53:29.421Z,6.03
2017-12-24T03:55:57.739Z,8.50
2017-12-24T03:58:25.349Z,7.77
2017-12-24T04:00:53.641Z,7.63
2017-12-24T04:03:21.931Z,7.00
2017-12-24T04:05:49.478Z,7.10
2017-12-24T04:08:17.763Z,5.97
2017-12-24T04:10:45.314Z,7.40
2017-12-24T04:13:13.639Z,7.40
2017-12-24T04:15:41.205Z,9.77
2017-12-24T04:18:08.754Z,7.57
2017-12-24T04:20:36.303Z,8.37
2017-12-24T04:23:04.005Z,10.43
2017-12-24T04:25:31.550Z,9.17
2017-12-24T04:27:59.279Z,9.50
2017-12-24T04:30:26.823Z,8.30
2017-12-24T04:32:54.419Z,8.47
2017-12-24T04:35:21.964Z,9.50
2017-12-24T04:37:49.490Z,8.53
2017-12-24T04:40:17.995Z,10.77
2017-12-24T04:42:45.527Z,8.60
2017-12-24T04:45:14.107Z,8.10
2017-12-24T04:47:42.412Z,8.20
2017-12-24T04:50:10.072Z,7.33
2017-12-24T04:52:37.666Z,6.60
2017-12-24T04:55:05.227Z,12.33
2017-12-24T04:57:32.852Z,6.80
2017-12-24T05:00:00.388Z,5.87
2017-12-24T05:02:28.825Z,7.00
2017-12-24T05:04:56.354Z,11.67
2017-12-24T05:07:23.917Z,6.70
2017-12-24T05:09:51.472Z,6.00
2017-12-24T05:12:19.218Z,7.27
2017-12-24T05:14:47.545Z,6.47
2017-12-24T05:17:15.370Z,8.67
2017-12-24T05:19:43.682Z,8.13
2017-12-24T05:22:11.417Z,6.00
2017-12-24T05:24:38.989Z,6.57
2017-12-24T05:27:06.540Z,7.10
2017-12-24T05:29:34.098Z,6.00
2017-12-24T05:32:01.650Z,7.33
2017-12-24T05:34:30.233Z,7.00
2017-12-24T05:36:57.862Z,6.53
2017-12-24T05:39:25.500Z,7.80
2017-12-24T05:41:53.078Z,6.03
2017-12-24T05:44:20.605Z,5.43
2017-12-24T05:46:48.151Z,8.90
2017-12-24T05:49:15.678Z,6.83
2017-12-24T05:51:44.002Z,8.33
2017-12-24T05:54:11.527Z,6.13
2017-12-24T05:56:39.853Z,5.87
2017-12-24T05:59:07.381Z,5.60
2017-12-24T06:01:34.947Z,6.63
2017-12-24T06:04:02.503Z,5.60
2017-12-24T06:06:30.027Z,5.67
2017-12-24T06:08:57.593Z,5.60
2017-12-24T06:11:25.884Z,6.10
2017-12-24T06:13:53.438Z,5.40
2017-12-24T06:16:21.739Z,10.17
2017-12-24T06:18:49.283Z,5.37
2017-12-24T06:21:17.570Z,6.67
2017-12-24T06:23:45.114Z,9.37
2017-12-24T06:26:13.408Z,16.50
2017-12-24T06:28:40.952Z,5.03
2017-12-24T06:51:22.251Z,7.80
2017-12-24T06:53:49.815Z,5.87
2017-12-24T06:56:17.496Z,4.77
2017-12-24T06:58:45.823Z,3.93
2017-12-24T07:01:13.368Z,4.73
2017-12-24T07:03:40.927Z,4.77
2017-12-24T07:06:08.459Z,5.00
2017-12-24T07:08:36.035Z,5.97
2017-12-24T07:11:03.567Z,7.07
2017-12-24T07:13:31.900Z,5.33
2017-12-24T07:15:59.495Z,4.40
2017-12-24T07:18:27.803Z,4.33
2017-12-24T07:20:55.363Z,4.17
2017-12-24T07:23:22.898Z,4.30
2017-12-24T07:25:51.214Z,3.10
2017-12-24T07:28:18.752Z,4.47
2017-12-24T07:30:46.301Z,3.00
2017-12-24T07:33:14.595Z,3.90
2017-12-24T07:35:42.197Z,3.03
2017-12-24T07:38:09.723Z,2.90
2017-12-24T07:40:37.265Z,2.77
2017-12-24T07:43:05.553Z,2.40
2017-12-24T07:45:33.102Z,3.40
2017-12-24T07:48:00.636Z,2.97
2017-12-24T07:50:28.182Z,3.67
2017-12-24T07:52:55.839Z,3.67
2017-12-24T07:55:23.390Z,4.57
2017-12-24T07:57:50.915Z,3.33
2017-12-24T08:00:18.467Z,4.87
2017-12-24T08:02:46.016Z,5.70
2017-12-24T08:05:14.338Z,5.10
2017-12-24T08:07:41.868Z,3.83
2017-12-24T08:10:09.488Z,3.90
2017-12-24T08:12:37.818Z,4.97
2017-12-24T08:15:05.346Z,3.83
2017-12-24T08:17:33.663Z,7.33
2017-12-24T08:20:01.183Z,4.50
2017-12-24T08:22:29.511Z,4.93
2017-12-24T08:24:57.040Z,5.90
2017-12-24T08:27:24.587Z,6.20
2017-12-24T08:29:52.888Z,5.10
2017-12-24T08:32:20.453Z,4.77
2017-12-24T08:34:47.974Z,3.10
2017-12-24T08:37:16.295Z,5.80
2017-12-24T08:39:43.827Z,7.90
2017-12-24T08:42:11.405Z,4.90
2017-12-24T08:44:38.934Z,4.70
2017-12-24T08:47:08.892Z,4.30
2017-12-24T08:49:36.436Z,5.00
2017-12-24T08:52:04.004Z,4.43
2017-12-24T08:54:31.846Z,5.60
2017-12-24T08:56:59.407Z,4.33
2017-12-24T08:59:27.696Z,5.17
2017-12-24T09:01:55.248Z,6.30
2017-12-24T09:04:22.808Z,4.70
2017-12-24T09:06:50.372Z,6.10
2017-12-24T09:09:18.002Z,4.10
2017-12-24T09:11:46.342Z,5.77
2017-12-24T09:14:13.870Z,5.23
2017-12-24T09:16:41.394Z,5.43
2017-12-24T09:19:09.001Z,5.17
2017-12-24T09:21:37.264Z,9.83
2017-12-24T09:24:04.828Z,6.13
2017-12-24T09:26:32.391Z,3.27
2017-12-24T09:28:59.958Z,5.97
2017-12-24T09:31:27.501Z,6.40
2017-12-24T09:33:55.060Z,2.90
2017-12-24T09:36:22.594Z,2.83
2017-12-24T09:38:50.160Z,2.37
2017-12-24T09:41:18.451Z,2.43
2017-12-24T09:43:46.021Z,3.37
2017-12-24T09:46:13.546Z,2.77
2017-12-24T09:48:41.103Z,2.80
2017-12-24T09:51:08.639Z,2.40
2017-12-24T09:53:36.196Z,2.90
2017-12-24T09:56:03.717Z,3.57
2017-12-24T09:58:31.274Z,2.40
2017-12-24T10:00:58.803Z,2.87
2017-12-24T10:03:28.539Z,2.50
2017-12-24T10:05:56.095Z,2.43
2017-12-24T10:08:24.406Z,5.73
2017-12-24T10:10:51.932Z,4.30
2017-12-24T10:13:20.224Z,3.43
2017-12-24T10:15:47.779Z,4.03
2017-12-24T10:18:15.317Z,2.87
2017-12-24T10:20:43.631Z,2.53
2017-12-24T10:23:11.168Z,4.43
2017-12-24T10:25:39.503Z,3.07
2017-12-24T10:28:07.038Z,2.63
2017-12-24T10:30:34.594Z,2.40
2017-12-24T10:33:02.138Z,7.17
2017-12-24T10:35:29.697Z,3.20
2017-12-24T10:37:57.238Z,3.53
2017-12-24T10:40:25.558Z,2.70
2017-12-24T10:42:53.084Z,3.63
2017-12-24T10:45:20.649Z,2.90
2017-12-24T10:47:48.216Z,2.50
2017-12-24T10:50:15.761Z,2.53
2017-12-24T10:52:44.060Z,2.67
2017-12-24T10:55:11.618Z,2.70
2017-12-24T10:57:39.138Z,2.43
2017-12-24T11:00:06.690Z,3.20
2017-12-24T11:02:34.265Z,2.60
2017-12-24T11:05:04.528Z,3.00
2017-12-24T11:07:32.055Z,2.37
2017-12-24T11:10:00.371Z,2.87
2017-12-24T11:12:27.903Z,3.07
2017-12-24T11:14:55.430Z,2.13
2017-12-24T11:17:22.978Z,3.87
2017-12-24T11:19:50.519Z,3.40
2017-12-24T11:22:18.072Z,4.70
2017-12-24T11:24:45.606Z,2.63
2017-12-24T11:27:13.156Z,2.93
2017-12-24T11:29:40.687Z,2.07
2017-12-24T11:32:08.242Z,2.43
2017-12-24T11:34:35.772Z,3.10
2017-12-24T11:37:03.338Z,2.73
2017-12-24T11:39:30.863Z,2.10
2017-12-24T11:41:58.413Z,2.73
2017-12-24T11:44:25.942Z,2.00
2017-12-24T11:46:53.492Z,3.90
2017-12-24T11:49:21.015Z,2.80
2017-12-24T11:51:48.580Z,2.07
2017-12-24T11:54:16.114Z,2.67
2017-12-24T11:56:43.658Z,4.73
2017-12-24T11:59:11.954Z,4.90
2017-12-24T12:01:39.507Z,7.27
2017-12-24T12:04:07.068Z,19.30
2017-12-24T12:06:34.639Z,2.43
2017-12-24T12:09:02.486Z,2.87
2017-12-24T12:11:30.081Z,3.13
2017-12-24T12:13:57.631Z,3.73
2017-12-24T12:16:25.166Z,5.40
2017-12-24T12:18:53.477Z,2.63
2017-12-24T12:21:21.019Z,2.77
2017-12-24T12:23:48.578Z,2.80
2017-12-24T12:26:16.126Z,2.90
2017-12-24T12:28:57.875Z,3.47
2017-12-24T12:31:25.398Z,3.80
2017-12-24T12:33:52.953Z,3.00
2017-12-24T12:36:20.514Z,3.00
2017-12-24T12:38:48.058Z,4.57
2017-12-24T12:41:16.341Z,2.63
2017-12-24T12:43:43.894Z,2.77
2017-12-24T12:46:11.427Z,4.27
2017-12-24T12:48:38.983Z,3.80
2017-12-24T12:51:06.510Z,2.10
2017-12-24T12:53:34.364Z,2.50
2017-12-24T12:56:01.971Z,4.60
2017-12-24T12:58:30.275Z,2.73
2017-12-24T13:00:57.810Z,2.43
2017-12-24T13:03:25.364Z,6.43
2017-12-24T13:05:52.899Z,4.57
2017-12-24T13:08:20.448Z,3.33
2017-12-24T13:10:47.978Z,5.77
2017-12-24T13:13:15.509Z,3.10
2017-12-24T13:15:43.057Z,2.70
2017-12-24T13:18:10.587Z,3.40
2017-12-24T13:20:38.911Z,4.20
2017-12-24T13:23:06.445Z,4.63
2017-12-24T13:25:34.000Z,2.90
2017-12-24T13:28:01.538Z,3.57
2017-12-24T13:30:29.096Z,2.93
2017-12-24T13:32:56.623Z,2.17
2017-12-24T13:35:24.946Z,3.03
2017-12-24T13:37:52.486Z,2.43
2017-12-24T13:40:20.039Z,3.07
2017-12-24T13:42:47.587Z,3.30
2017-12-24T13:45:15.904Z,2.60
2017-12-24T13:47:43.429Z,3.00
2017-12-24T13:50:10.982Z,5.30
2017-12-24T13:52:39.270Z,4.60
2017-12-24T13:55:06.822Z,8.60
2017-12-24T13:57:35.108Z,6.87
2017-12-24T14:00:02.666Z,4.93
2017-12-24T14:02:30.191Z,5.30
2017-12-24T14:04:57.751Z,7.73
2017-12-24T14:07:25.296Z,5.10
2017-12-24T14:09:52.821Z,6.50
2017-12-24T14:12:20.499Z,8.57
2017-12-24T14:14:48.058Z,7.83
2017-12-24T14:17:15.594Z,6.40
2017-12-24T14:19:43.126Z,6.20
2017-12-24T14:22:11.452Z,3.77
2017-12-24T14:24:38.988Z,2.97
2017-12-24T14:27:06.572Z,10.07
2017-12-24T14:29:34.099Z,3.80
2017-12-24T14:32:01.671Z,4.50
2017-12-24T14:34:29.206Z,4.10
2017-12-24T14:36:56.773Z,2.70
2017-12-24T14:39:24.314Z,3.23
2017-12-24T14:41:52.654Z,4.47
2017-12-24T14:44:20.185Z,4.97
2017-12-24T14:46:47.736Z,4.80
2017-12-24T14:49:15.275Z,6.00
2017-12-24T14:51:43.614Z,4.50
2017-12-24T14:54:11.150Z,3.50
2017-12-24T14:56:38.719Z,3.07
2017-12-24T14:59:06.285Z,7.17
2017-12-24T15:01:33.873Z,23.63
2017-12-24T15:04:01.423Z,5.87
2017-12-24T15:06:29.008Z,7.20
2017-12-24T15:08:56.557Z,6.00
2017-12-24T15:11:24.127Z,3.53
2017-12-24T15:13:52.451Z,5.20
2017-12-24T15:16:20.035Z,4.33
2017-12-24T15:18:47.587Z,3.90
2017-12-24T15:21:15.162Z,5.20
2017-12-24T15:23:42.721Z,7.73
2017-12-24T15:26:10.247Z,5.07
2017-12-24T15:28:37.806Z,6.17
2017-12-24T15:31:05.335Z,5.90
2017-12-24T15:33:33.655Z,7.53
2017-12-24T15:36:01.174Z,5.63
2017-12-24T15:38:29.491Z,6.93
2017-12-24T15:40:57.023Z,8.83
2017-12-24T15:43:24.571Z,6.50
2017-12-24T15:45:52.859Z,7.60
2017-12-24T15:48:20.402Z,9.80
2017-12-24T15:50:48.699Z,13.80
2017-12-24T15:53:16.250Z,6.70
2017-12-24T15:55:44.535Z,6.23
2017-12-24T15:58:12.102Z,8.47
2017-12-24T16:00:39.636Z,9.10
2017-12-24T16:03:07.951Z,12.53
2017-12-24T16:05:35.474Z,7.10
2017-12-24T16:08:03.791Z,9.47
2017-12-24T16:10:31.326Z,4.43
2017-12-24T16:12:58.882Z,4.43
2017-12-24T16:15:26.419Z,5.77
2017-12-24T16:17:54.046Z,6.30
2017-12-24T16:20:21.696Z,5.40
2017-12-24T16:22:49.227Z,5.13
2017-12-24T16:25:16.823Z,7.13
2017-12-24T16:27:44.344Z,6.00
2017-12-24T16:30:11.890Z,5.03
2017-12-24T16:32:40.178Z,5.63
2017-12-24T16:35:08.498Z,6.67
2017-12-24T16:37:36.031Z,6.93
2017-12-24T16:40:03.579Z,6.80
2017-12-24T16:42:31.116Z,5.83
2017-12-24T16:44:59.443Z,7.67
2017-12-24T16:47:26.974Z,5.73
2017-12-24T16:49:54.530Z,6.83
2017-12-24T16:52:22.066Z,11.53
2017-12-24T16:54:49.618Z,6.97
2017-12-24T16:57:17.137Z,10.63
2017-12-24T16:59:44.685Z,14.57
2017-12-24T17:02:12.220Z,14.03
2017-12-24T17:04:40.533Z,10.27
2017-12-24T17:07:08.059Z,9.50
2017-12-24T17:09:36.381Z,8.73
2017-12-24T17:12:03.905Z,7.63
2017-12-24T17:14:31.489Z,9.47
2017-12-24T17:16:59.023Z,5.33
2017-12-24T17:19:26.555Z,6.00
2017-12-24T17:21:54.100Z,6.07
2017-12-24T17:24:21.630Z,6.10
2017-12-24T17:26:49.186Z,5.50
2017-12-24T17:29:16.715Z,6.43
2017-12-24T17:31:45.036Z,5.67
2017-12-24T17:34:12.559Z,4.77
2017-12-24T17:36:40.107Z,6.13
2017-12-24T17:39:08.404Z,4.50
2017-12-24T17:41:35.955Z,4.27
2017-12-24T17:44:03.487Z,4.67
2017-12-24T17:46:31.046Z,5.17
2017-12-24T17:48:58.575Z,4.70
2017-12-24T17:51:26.127Z,4.53
2017-12-24T17:53:53.663Z,6.70
2017-12-24T17:56:21.226Z,4.73
2017-12-24T17:58:48.760Z,4.10
2017-12-24T18:01:17.079Z,5.27
2017-12-24T18:03:44.612Z,4.80
2017-12-24T18:06:12.175Z,3.70
2017-12-24T18:08:39.713Z,4.77
2017-12-24T18:11:08.036Z,4.43
2017-12-24T18:13:35.565Z,5.40
2017-12-24T18:16:03.101Z,4.37
2017-12-24T18:18:30.661Z,4.70
2017-12-24T18:20:58.188Z,4.20
2017-12-24T18:23:25.739Z,4.70
2017-12-24T18:25:53.269Z,5.37
2017-12-24T18:28:20.847Z,4.90
2017-12-24T18:30:48.392Z,7.37
2017-12-24T18:33:15.972Z,4.73
2017-12-24T18:35:43.530Z,4.30
2017-12-24T18:38:11.087Z,5.03
2017-12-24T18:40:38.626Z,4.13
2017-12-24T18:43:06.175Z,3.83
2017-12-24T18:45:34.470Z,5.10
2017-12-24T18:48:02.024Z,4.60
2017-12-24T18:50:29.552Z,4.90
2017-12-24T18:52:57.098Z,4.60
2017-12-24T18:55:24.635Z,3.93
2017-12-24T18:57:52.196Z,7.30
2017-12-24T19:00:19.726Z,4.70
2017-12-24T19:02:47.280Z,7.83
2017-12-24T19:05:14.808Z,3.33
2017-12-24T19:07:42.375Z,3.87
2017-12-24T19:10:10.670Z,4.50
2017-12-24T19:12:39.023Z,7.33
2017-12-24T19:15:06.553Z,9.30
2017-12-24T19:17:34.083Z,10.67
2017-12-24T19:20:01.633Z,9.20
2017-12-24T19:22:29.166Z,5.90
2017-12-24T19:24:56.718Z,7.27
2017-12-24T19:27:24.242Z,6.20
2017-12-24T19:29:51.799Z,4.83
2017-12-24T19:32:20.086Z,10.23
2017-12-24T19:34:47.641Z,7.57
2017-12-24T19:37:15.170Z,3.93
2017-12-24T19:39:42.723Z,5.43
2017-12-24T19:42:10.258Z,5.20
2017-12-24T19:44:38.570Z,8.13
2017-12-24T19:47:06.102Z,6.13
2017-12-24T19:49:34.423Z,6.07
2017-12-24T19:52:01.959Z,5.83
2017-12-24T19:54:29.567Z,7.10
2017-12-24T19:56:57.062Z,7.93
2017-12-24T19:59:24.621Z,7.73
2017-12-24T20:01:52.921Z,10.37
2017-12-24T20:04:20.475Z,18.57
2017-12-24T20:06:48.006Z,12.70
2017-12-24T20:09:16.334Z,11.43
2017-12-24T20:11:43.859Z,12.80
2017-12-24T20:14:12.228Z,11.10
2017-12-24T20:16:40.522Z,8.97
2017-12-24T20:19:08.055Z,12.47
2017-12-24T20:21:35.633Z,9.97
2017-12-24T20:24:03.936Z,10.30
2017-12-24T20:26:31.495Z,6.43
2017-12-24T20:28:59.036Z,6.40
2017-12-24T20:31:26.586Z,9.37
2017-12-24T20:33:54.879Z,7.87
2017-12-24T20:36:22.435Z,9.20
2017-12-24T20:38:49.961Z,6.20
2017-12-24T20:41:17.507Z,6.90
2017-12-24T20:43:45.047Z,5.00
2017-12-24T20:46:12.600Z,5.27
2017-12-24T20:48:40.121Z,7.43
2017-12-24T20:51:08.452Z,6.00
2017-12-24T20:53:35.974Z,6.60
2017-12-24T20:56:03.549Z,8.17
2017-12-24T20:58:31.075Z,8.90
2017-12-24T21:00:59.407Z,7.10
2017-12-24T21:03:26.941Z,8.80
2017-12-24T21:05:54.496Z,6.47
2017-12-24T21:08:22.022Z,5.87
2017-12-24T21:10:49.573Z,7.20
2017-12-24T21:13:17.109Z,9.50
2017-12-24T21:15:44.638Z,10.70
2017-12-24T21:18:12.198Z,10.40
2017-12-24T21:20:39.720Z,7.33
2017-12-24T21:23:08.040Z,6.37
2017-12-24T21:25:35.558Z,5.53
2017-12-24T21:28:03.119Z,8.13
2017-12-24T21:30:31.427Z,6.40
2017-12-24T21:32:58.987Z,5.43
2017-12-24T21:35:26.509Z,5.97
2017-12-24T21:37:54.071Z,4.90
2017-12-24T21:40:21.606Z,4.67
2017-12-24T21:42:49.153Z,4.90
2017-12-24T21:45:16.673Z,6.87
2017-12-24T21:47:44.999Z,4.67
2017-12-24T21:50:12.530Z,5.27
2017-12-24T21:52:40.079Z,4.50
2017-12-24T21:55:07.603Z,3.87
2017-12-24T21:57:35.150Z,5.80
2017-12-24T22:00:02.674Z,4.17
2017-12-24T22:02:30.232Z,5.10
2017-12-24T22:04:57.773Z,7.73
2017-12-24T22:07:25.339Z,4.63
2017-12-24T22:09:53.330Z,5.20
2017-12-24T22:12:21.413Z,5.50
2017-12-24T22:14:48.988Z,5.10
2017-12-24T22:17:17.667Z,3.77
2017-12-24T22:19:45.263Z,5.50
2017-12-24T22:22:13.593Z,5.10
2017-12-24T22:24:41.191Z,7.00
2017-12-24T22:27:08.755Z,6.17
2017-12-24T22:29:37.348Z,4.67
2017-12-24T22:32:04.953Z,5.10
2017-12-24T22:34:32.518Z,6.67
2017-12-24T22:37:00.048Z,5.07
2017-12-24T22:39:27.599Z,5.10
2017-12-24T22:41:55.887Z,4.40
2017-12-24T22:44:23.467Z,4.43
2017-12-24T22:46:51.006Z,4.73
2017-12-24T22:49:18.562Z,4.33
2017-12-24T22:51:46.090Z,8.43
2017-12-24T22:54:13.650Z,5.27
2017-12-24T22:56:41.178Z,4.30
2017-12-24T22:59:08.721Z,4.20
2017-12-24T23:01:36.250Z,4.23
2017-12-24T23:04:03.811Z,6.50
2017-12-24T23:06:31.349Z,4.30
2017-12-24T23:08:58.907Z,4.07
2017-12-24T23:11:26.438Z,4.83
2017-12-24T23:13:53.994Z,5.40
2017-12-24T23:16:21.541Z,3.67
2017-12-24T23:18:49.074Z,4.20
2017-12-24T23:21:16.628Z,3.80
2017-12-24T23:23:44.968Z,4.10
2017-12-24T23:26:12.534Z,3.90
2017-12-24T23:28:40.059Z,3.40
2017-12-24T23:31:07.612Z,5.30
2017-12-24T23:33:35.168Z,3.30
2017-12-24T23:36:02.727Z,4.10
2017-12-24T23:38:30.254Z,3.27
2017-12-24T23:40:58.570Z,5.20
2017-12-24T23:43:26.095Z,3.53
2017-12-24T23:45:54.426Z,3.63
2017-12-24T23:48:21.944Z,3.07
2017-12-24T23:50:49.505Z,3.07
2017-12-24T23:53:17.042Z,3.83
2017-12-24T23:55:46.206Z,3.87
2017-12-24T23:58:13.726Z,3.17
